Main page
METAR-TAF:

METAR-TAF

Airports :

Yap International Airport

Yap, Micronesia

latitude: 09-29N, longitude: 138-05E, elevation: 28 m

Current weather observation

The report was made 49 minutes ago, at 00:50 UTC
Wind 7 kt from the North/Northwest
Temperature 29°C
Humidity 74%
Pressure 1005 hPa
Visibility: 19.3 km
Few clouds at a height of 1600 ft
Broken clouds at a height of 13000 ft
Overcast at a height of 30000 ft

METAR: PTYA 150050Z 33007KT 12SM FEW016 BKN130 OVC300 29/24 A2968 RMK SLP054 T02850243

Time: 11:39 (01:39 UTC)

Forecast

The report was made 2 hours and 16 minutes ago, at 23:23 UTC
Forecast valid from 15 at 00 UTC to 15 at 24 UTC
Wind 11 kt from the West/Northwest
Visibility: 10 km
Few clouds at a height of 1600 ft
Scattered clouds at a height of 3000 ft
Broken clouds at a height of 13000 ft
showers in vicinity

TAF: PTYA 142323Z 1500/1524 30011KT P6SM VCSH FEW016 SCT030 BKN130

Weather observations and forecasts of more than 4000 airports (METAR and TAF reports).

The available stations are represented by yellow and red dots on the map.

Hover mouse over dot to see the name of the station.

Then click to see weather observations and forecasts.

To change the map : click on the green buttons with a black cross to zoom in, on the green button with a dash to zoom out, or on the green arrows for adjacent maps.


METAR-TAF: